メインページ
METAR-TAF:

METAR-TAF

空港 :

Wellsville Municipal Airport (Tarantine Field)

Wellsville, ニューヨーク, アメリカ合衆国

緯度: 42-06-27N, 経度: 077-59-04W, 海抜: 647m

現時点の気象観測

当レポートは36分前の20:56(UTC)に作成
西/北西の風 8kt
気温 25°C
湿度 61%
気圧 1019 hPa
視程: 16.1km
高度3700ftの雲は散在している

METAR: KELZ 192056Z AUTO 29008KT 10SM SCT037 25/17 A3010 RMK AO2 SLP180 T02500172 55004

時間: 17:32 (21:32 UTC)


TAF: 見つかりません

4,000以上の空港の気象観測と天気予報(METAR報とTAF報)

利用可能な観測所は地図上に黄色い丸と赤い丸で示す。

丸の上にカーソルを重ねると観測所名を参照できる。

次にクリックすると気象観測と天気予報を参照できる。

マップの切り替え:黒色「×」印の緑ボタンをクリックして拡大、「-」印の緑ボタンをクリックして縮小、緑色の三角印をクリックして隣りの地図に切り替え


METAR-TAF: